createdAt,value
2018-09-10T00:02:10.684Z,17.50
2018-09-10T00:04:38.743Z,17.52
2018-09-10T00:07:06.804Z,17.53
2018-09-10T00:09:35.113Z,17.47
2018-09-10T00:12:03.364Z,17.45
2018-09-10T00:14:31.437Z,17.48
2018-09-10T00:16:59.517Z,17.52
2018-09-10T00:19:27.987Z,17.53
2018-09-10T00:21:56.154Z,17.55
2018-09-10T00:24:24.209Z,17.58
2018-09-10T00:26:52.512Z,17.62
2018-09-10T00:29:20.907Z,17.64
2018-09-10T00:31:48.971Z,17.69
2018-09-10T00:34:17.029Z,17.74
2018-09-10T00:36:45.094Z,17.78
2018-09-10T00:39:14.625Z,17.83
2018-09-10T00:41:43.088Z,17.91
2018-09-10T00:44:24.320Z,17.98
2018-09-10T00:46:52.367Z,18.06
2018-09-10T00:49:26.684Z,18.12
2018-09-10T00:51:54.923Z,18.17
2018-09-10T00:54:22.969Z,18.22
2018-09-10T00:56:51.020Z,18.26
2018-09-10T00:59:19.047Z,18.29
2018-09-10T01:01:47.108Z,18.31
2018-09-10T01:04:15.179Z,18.30
2018-09-10T01:06:43.209Z,18.32
2018-09-10T01:09:11.431Z,18.33
2018-09-10T01:11:40.009Z,18.33
2018-09-10T01:14:08.643Z,18.35
2018-09-10T01:16:36.700Z,18.38
2018-09-10T01:19:04.920Z,18.38
2018-09-10T01:21:32.992Z,18.36
2018-09-10T01:24:01.028Z,18.36
2018-09-10T01:26:29.090Z,18.35
2018-09-10T01:28:57.172Z,18.34
2018-09-10T01:31:25.608Z,18.36
2018-09-10T01:33:59.278Z,18.34
2018-09-10T01:36:27.358Z,18.29
2018-09-10T01:38:55.433Z,18.27
2018-09-10T01:41:23.524Z,18.23
2018-09-10T01:43:51.588Z,18.20
2018-09-10T01:46:19.996Z,18.18
2018-09-10T01:48:48.564Z,18.17
2018-09-10T01:51:16.616Z,18.17
2018-09-10T01:53:44.676Z,18.15
2018-09-10T01:56:12.727Z,18.02
2018-09-10T01:58:41.023Z,17.99
2018-09-10T02:01:09.092Z,17.99
2018-09-10T02:03:37.149Z,17.97
2018-09-10T02:06:05.491Z,17.96
2018-09-10T02:08:33.597Z,17.92
2018-09-10T02:11:01.974Z,17.91
2018-09-10T02:13:30.310Z,17.87
2018-09-10T02:15:58.414Z,17.77
2018-09-10T02:18:26.444Z,17.74
2018-09-10T02:20:54.501Z,17.71
2018-09-10T02:23:22.551Z,17.68
2018-09-10T02:25:50.608Z,17.65
2018-09-10T02:28:18.737Z,17.63
2018-09-10T02:30:49.465Z,17.60
2018-09-10T02:33:17.509Z,17.57
2018-09-10T02:35:45.708Z,17.55
2018-09-10T02:38:13.773Z,17.51
2018-09-10T02:40:42.141Z,17.48
2018-09-10T02:43:10.207Z,17.47
2018-09-10T02:45:38.226Z,17.47
2018-09-10T02:48:06.282Z,17.45
2018-09-10T02:50:34.317Z,17.46
2018-09-10T02:53:02.377Z,17.46
2018-09-10T02:55:30.728Z,17.46
2018-09-10T02:57:58.776Z,17.45
2018-09-10T03:00:26.828Z,17.50
2018-09-10T03:02:55.379Z,17.52
2018-09-10T03:05:23.691Z,17.53
2018-09-10T03:07:51.775Z,17.52
2018-09-10T03:10:22.248Z,17.52
2018-09-10T03:12:50.940Z,17.53
2018-09-10T03:15:18.993Z,17.46
2018-09-10T03:17:47.055Z,17.46
2018-09-10T03:20:15.091Z,17.47
2018-09-10T03:22:43.385Z,17.46
2018-09-10T03:25:11.521Z,17.47
2018-09-10T03:27:39.589Z,17.47
2018-09-10T03:30:07.632Z,17.47
2018-09-10T03:32:35.687Z,17.46
2018-09-10T03:35:03.988Z,17.48
2018-09-10T03:37:32.088Z,17.49
2018-09-10T03:40:00.133Z,17.49
2018-09-10T03:42:28.175Z,17.50
2018-09-10T03:44:56.225Z,17.45
2018-09-10T03:47:24.751Z,17.46
2018-09-10T03:49:53.028Z,17.48
2018-09-10T03:52:21.400Z,17.50
2018-09-10T03:54:49.577Z,17.50
2018-09-10T03:57:17.748Z,17.52
2018-09-10T03:59:45.804Z,17.49
2018-09-10T04:02:14.024Z,17.57
2018-09-10T04:04:42.126Z,17.58
2018-09-10T04:07:10.174Z,17.59
2018-09-10T04:09:38.264Z,17.61
2018-09-10T04:12:06.481Z,17.62
2018-09-10T04:14:34.552Z,17.66
2018-09-10T04:17:02.653Z,17.65
2018-09-10T04:19:30.730Z,17.69
2018-09-10T04:21:58.748Z,17.70
2018-09-10T04:24:26.860Z,17.68
2018-09-10T04:26:54.913Z,17.69
2018-09-10T04:29:22.980Z,17.71
2018-09-10T04:31:51.024Z,17.70
2018-09-10T04:34:19.095Z,17.71
2018-09-10T04:36:47.342Z,17.71
2018-09-10T04:39:15.384Z,17.73
2018-09-10T04:41:43.963Z,17.75
2018-09-10T04:44:12.033Z,17.76
2018-09-10T04:46:40.612Z,17.77
2018-09-10T04:49:09.622Z,17.77
2018-09-10T04:51:37.660Z,17.75
2018-09-10T04:54:06.812Z,17.76
2018-09-10T04:56:34.982Z,17.76
2018-09-10T04:59:04.455Z,17.77
2018-09-10T05:01:32.693Z,17.75
2018-09-10T05:04:00.794Z,17.77
2018-09-10T05:09:19.153Z,17.74
2018-09-10T05:11:47.234Z,17.74
2018-09-10T05:14:15.284Z,17.71
2018-09-10T05:17:01.492Z,17.70
2018-09-10T05:19:30.368Z,17.68
2018-09-10T05:22:00.738Z,17.68
2018-09-10T05:24:29.194Z,17.68
2018-09-10T05:26:57.273Z,17.70
2018-09-10T05:29:25.339Z,17.72
2018-09-10T05:31:53.387Z,17.71
2018-09-10T05:34:21.444Z,17.71
2018-09-10T05:36:49.795Z,17.71
2018-09-10T05:39:17.851Z,17.77
2018-09-10T05:41:45.964Z,17.80
2018-09-10T05:44:13.960Z,17.80
2018-09-10T05:46:42.000Z,17.83
2018-09-10T05:49:10.025Z,17.84
2018-09-10T05:51:38.149Z,17.84
2018-09-10T05:54:06.381Z,17.83
2018-09-10T05:56:34.412Z,17.84
2018-09-10T05:59:03.250Z,17.86
2018-09-10T06:01:31.293Z,17.86
2018-09-10T06:03:59.321Z,17.88
2018-09-10T06:06:27.516Z,17.87
2018-09-10T06:08:55.721Z,17.91
2018-09-10T06:11:23.748Z,17.92
2018-09-10T06:13:51.792Z,17.91
2018-09-10T06:16:19.918Z,17.96
2018-09-10T06:18:48.480Z,18.01
2018-09-10T06:21:16.539Z,18.01
2018-09-10T06:23:44.573Z,18.00
2018-09-10T06:26:12.820Z,18.04
2018-09-10T06:28:41.069Z,18.08
2018-09-10T06:31:09.446Z,18.11
2018-09-10T06:33:37.612Z,18.15
2018-09-10T06:36:05.681Z,18.21
2018-09-10T06:38:33.791Z,18.27
2018-09-10T06:41:01.821Z,18.32
2018-09-10T06:43:29.852Z,18.37
2018-09-10T06:45:57.949Z,18.39
2018-09-10T06:48:26.068Z,18.43
2018-09-10T06:50:54.112Z,18.46
2018-09-10T06:53:22.194Z,18.44
2018-09-10T06:55:50.485Z,18.49
2018-09-10T06:58:18.528Z,18.51
2018-09-10T07:00:46.568Z,18.54
2018-09-10T07:03:14.794Z,18.58
2018-09-10T07:05:42.841Z,18.63
2018-09-10T07:08:10.944Z,18.66
2018-09-10T07:10:38.995Z,18.72
2018-09-10T07:13:07.125Z,18.72
2018-09-10T07:15:35.328Z,18.77
2018-09-10T07:18:03.378Z,18.81
2018-09-10T07:20:31.404Z,18.86
2018-09-10T07:22:59.459Z,18.92
2018-09-10T07:25:27.508Z,18.98
2018-09-10T07:27:55.548Z,18.99
2018-09-10T07:30:23.609Z,19.02
2018-09-10T07:32:51.628Z,19.01
2018-09-10T07:35:19.691Z,19.04
2018-09-10T07:37:47.773Z,19.08
2018-09-10T07:40:15.908Z,19.15
2018-09-10T07:42:43.985Z,19.20
2018-09-10T07:45:12.036Z,19.28
2018-09-10T07:47:40.136Z,19.36
2018-09-10T07:50:08.202Z,19.46
2018-09-10T07:52:36.393Z,19.49
2018-09-10T07:55:05.442Z,19.52
2018-09-10T07:57:33.489Z,19.56
2018-09-10T08:00:01.925Z,19.62
2018-09-10T08:02:30.120Z,19.64
2018-09-10T08:04:58.174Z,19.68
2018-09-10T08:07:26.202Z,19.71
2018-09-10T08:09:54.752Z,19.73
2018-09-10T08:12:22.857Z,19.74
2018-09-10T08:14:50.919Z,19.77
2018-09-10T08:17:18.953Z,19.81
2018-09-10T08:19:46.995Z,19.85
2018-09-10T08:22:15.192Z,19.87
2018-09-10T08:24:43.313Z,19.89
2018-09-10T08:27:11.366Z,19.91
2018-09-10T08:29:39.421Z,19.90
2018-09-10T08:32:07.512Z,19.96
2018-09-10T08:34:35.584Z,20.06
2018-09-10T08:37:05.056Z,20.12
2018-09-10T08:39:33.155Z,20.19
2018-09-10T08:42:01.195Z,20.21
2018-09-10T08:44:29.584Z,20.23
2018-09-10T08:46:57.740Z,20.21
2018-09-10T08:49:25.791Z,20.27
2018-09-10T08:51:54.208Z,20.39
2018-09-10T08:54:22.349Z,20.50
2018-09-10T08:56:50.269Z,20.52
2018-09-10T08:59:18.313Z,20.58
2018-09-10T09:01:46.553Z,20.67
2018-09-10T09:04:14.576Z,20.76
2018-09-10T09:06:42.613Z,20.78
2018-09-10T09:09:10.728Z,20.80
2018-09-10T09:11:38.767Z,20.84
2018-09-10T09:14:06.817Z,20.91
2018-09-10T09:16:34.895Z,20.96
2018-09-10T09:19:02.944Z,20.97
2018-09-10T09:21:30.976Z,20.98
2018-09-10T09:23:59.032Z,21.01
2018-09-10T09:26:27.068Z,21.02
2018-09-10T09:28:55.116Z,21.08
2018-09-10T09:31:23.178Z,21.15
2018-09-10T09:33:51.215Z,21.14
2018-09-10T09:36:24.574Z,21.18
2018-09-10T09:41:02.621Z,21.16
2018-09-10T09:43:36.338Z,21.11
2018-09-10T09:46:08.759Z,21.21
2018-09-10T09:48:36.820Z,21.19
2018-09-10T09:51:05.689Z,21.19
2018-09-10T09:53:35.224Z,21.23
2018-09-10T09:56:03.432Z,21.36
2018-09-10T09:58:31.455Z,21.44
2018-09-10T10:01:04.797Z,21.49
2018-09-10T10:03:38.314Z,21.57
2018-09-10T10:06:06.468Z,21.63
2018-09-10T10:08:34.613Z,21.67
2018-09-10T10:11:02.665Z,21.73
2018-09-10T10:13:30.687Z,21.74
2018-09-10T10:15:58.717Z,21.80
2018-09-10T10:18:26.736Z,21.86
2018-09-10T10:20:54.803Z,21.82
2018-09-10T10:23:22.837Z,21.77
2018-09-10T10:25:51.052Z,21.74
2018-09-10T10:28:19.124Z,21.81
2018-09-10T10:30:47.134Z,21.78
2018-09-10T10:33:15.187Z,21.76
2018-09-10T10:35:43.282Z,21.82
2018-09-10T10:38:11.310Z,21.87
2018-09-10T10:40:39.345Z,21.94
2018-09-10T10:43:07.373Z,22.02
2018-09-10T10:45:35.401Z,22.09
2018-09-10T10:48:03.440Z,22.17
2018-09-10T10:50:31.454Z,22.28
2018-09-10T10:52:59.484Z,22.31
2018-09-10T10:55:27.514Z,22.37
2018-09-10T10:57:55.541Z,22.36
2018-09-10T11:00:23.574Z,22.42
2018-09-10T11:02:51.599Z,22.40
2018-09-10T11:05:19.620Z,22.41
2018-09-10T11:07:47.652Z,22.46
2018-09-10T11:10:15.884Z,22.46
2018-09-10T11:12:50.624Z,22.41
2018-09-10T11:15:18.964Z,22.40
2018-09-10T11:17:46.992Z,22.45
2018-09-10T11:20:15.025Z,22.50
2018-09-10T11:22:43.320Z,22.52
2018-09-10T11:25:11.350Z,22.58
2018-09-10T11:27:39.439Z,22.61
2018-09-10T11:30:07.437Z,22.57
2018-09-10T11:32:35.559Z,22.58
2018-09-10T11:35:03.597Z,22.59
2018-09-10T11:37:31.633Z,22.60
2018-09-10T11:39:59.679Z,22.68
2018-09-10T11:42:27.705Z,22.65
2018-09-10T11:44:55.727Z,22.57
2018-09-10T11:47:23.843Z,22.56
2018-09-10T11:49:51.891Z,22.59
2018-09-10T11:52:20.104Z,22.63
2018-09-10T11:54:48.148Z,22.69
2018-09-10T11:57:17.111Z,22.64
2018-09-10T11:59:45.149Z,22.56
2018-09-10T12:02:13.324Z,22.51
2018-09-10T12:04:41.257Z,22.46
2018-09-10T12:07:10.209Z,22.42
2018-09-10T12:09:38.317Z,22.48
2018-09-10T12:12:06.571Z,22.54
2018-09-10T12:14:34.653Z,22.73
2018-09-10T12:17:02.672Z,22.91
2018-09-10T12:19:30.928Z,23.03
2018-09-10T12:21:58.992Z,22.91
2018-09-10T12:24:27.037Z,22.87
2018-09-10T12:26:55.079Z,22.87
2018-09-10T12:29:23.112Z,22.86
2018-09-10T12:32:03.240Z,22.83
2018-09-10T12:34:31.273Z,22.82
2018-09-10T12:36:59.300Z,22.79
2018-09-10T12:39:27.463Z,22.80
2018-09-10T12:41:55.556Z,22.78
2018-09-10T12:44:23.609Z,22.78
2018-09-10T12:46:51.687Z,22.85
2018-09-10T12:49:20.049Z,22.91
2018-09-10T12:51:48.102Z,23.03
2018-09-10T12:54:16.112Z,23.15
2018-09-10T12:56:44.556Z,23.26
2018-09-10T12:59:12.580Z,23.33
2018-09-10T13:01:40.638Z,23.31
2018-09-10T13:04:08.679Z,23.27
2018-09-10T13:06:36.704Z,23.28
2018-09-10T13:09:06.488Z,23.34
2018-09-10T13:11:34.617Z,23.40
2018-09-10T13:14:02.883Z,23.41
2018-09-10T13:16:30.945Z,23.33
2018-09-10T13:18:58.973Z,23.21
2018-09-10T13:21:27.003Z,23.15
2018-09-10T13:23:55.058Z,23.11
2018-09-10T13:26:23.097Z,23.11
2018-09-10T13:28:51.138Z,23.05
2018-09-10T13:31:19.165Z,22.94
2018-09-10T13:33:47.366Z,22.90
2018-09-10T13:36:15.401Z,22.87
2018-09-10T13:38:43.432Z,22.85
2018-09-10T13:41:11.462Z,22.88
2018-09-10T13:43:39.578Z,22.88
2018-09-10T13:46:07.648Z,22.95
2018-09-10T13:48:35.696Z,23.01
2018-09-10T13:51:03.749Z,23.05
2018-09-10T13:53:31.765Z,22.98
2018-09-10T13:55:59.792Z,22.97
2018-09-10T13:58:27.831Z,22.99
2018-09-10T14:00:55.961Z,22.96
2018-09-10T14:03:24.000Z,23.00
2018-09-10T14:05:52.056Z,22.98
2018-09-10T14:08:20.100Z,22.99
2018-09-10T14:10:48.356Z,22.92
2018-09-10T14:13:16.316Z,22.85
2018-09-10T14:15:44.354Z,22.72
2018-09-10T14:18:12.681Z,22.62
2018-09-10T14:20:40.821Z,22.62
2018-09-10T14:23:08.876Z,22.69
2018-09-10T14:25:36.897Z,22.68
2018-09-10T14:28:05.294Z,22.70
2018-09-10T14:30:33.326Z,22.69
2018-09-10T14:33:01.494Z,22.63
2018-09-10T14:35:29.533Z,22.55
2018-09-10T14:37:57.579Z,22.52
2018-09-10T14:40:25.616Z,22.55
2018-09-10T14:42:53.663Z,22.52
2018-09-10T14:45:21.750Z,22.52
2018-09-10T14:47:49.788Z,22.50
2018-09-10T14:50:17.871Z,22.44
2018-09-10T14:52:45.853Z,22.43
2018-09-10T14:55:14.144Z,22.44
2018-09-10T14:57:42.192Z,22.42
2018-09-10T15:00:14.456Z,22.35
2018-09-10T15:02:42.920Z,22.35
2018-09-10T15:08:03.294Z,22.31
2018-09-10T15:10:31.320Z,22.25
2018-09-10T15:12:59.366Z,22.20
2018-09-10T15:15:27.772Z,22.15
2018-09-10T15:17:55.791Z,22.13
2018-09-10T15:20:24.035Z,22.12
2018-09-10T15:22:52.204Z,22.14
2018-09-10T15:25:20.229Z,22.10
2018-09-10T15:27:48.281Z,22.07
2018-09-10T15:30:16.456Z,22.00
2018-09-10T15:32:44.493Z,21.95
2018-09-10T15:35:12.526Z,21.95
2018-09-10T15:37:40.562Z,21.97
2018-09-10T15:40:08.605Z,21.99
2018-09-10T15:42:36.649Z,21.94
2018-09-10T15:45:04.751Z,21.94
2018-09-10T15:47:32.761Z,21.98
2018-09-10T15:50:00.780Z,21.97
2018-09-10T15:52:28.821Z,21.89
2018-09-10T15:54:56.866Z,21.89
2018-09-10T15:57:25.240Z,21.91
2018-09-10T15:59:53.239Z,21.90
2018-09-10T16:02:21.345Z,21.88
2018-09-10T16:04:49.928Z,21.90
2018-09-10T16:07:18.016Z,21.95
2018-09-10T16:09:46.237Z,21.99
2018-09-10T16:12:15.584Z,21.90
2018-09-10T16:14:43.819Z,21.88
2018-09-10T16:17:12.431Z,21.81
2018-09-10T16:19:40.472Z,21.78
2018-09-10T16:22:08.525Z,21.77
2018-09-10T16:24:36.557Z,21.75
2018-09-10T16:27:05.082Z,21.75
2018-09-10T16:29:33.127Z,21.76
2018-09-10T16:32:01.176Z,21.78
2018-09-10T16:34:29.273Z,21.79
2018-09-10T16:36:57.342Z,21.79
2018-09-10T16:39:25.397Z,21.75
2018-09-10T16:41:53.505Z,21.70
2018-09-10T16:44:21.533Z,21.71
2018-09-10T16:46:49.676Z,21.71
2018-09-10T16:49:17.745Z,21.71
2018-09-10T16:51:45.785Z,21.68
2018-09-10T16:54:14.098Z,21.69
2018-09-10T16:56:42.043Z,21.69
2018-09-10T16:59:10.107Z,21.71
2018-09-10T17:01:38.328Z,21.66
2018-09-10T17:04:06.445Z,21.64
2018-09-10T17:06:41.167Z,21.65
2018-09-10T17:09:09.332Z,21.65
2018-09-10T17:11:37.396Z,21.63
2018-09-10T17:14:05.791Z,21.60
2018-09-10T17:16:33.828Z,21.53
2018-09-10T17:19:02.029Z,21.50
2018-09-10T17:21:30.094Z,21.50
2018-09-10T17:23:59.372Z,21.47
2018-09-10T17:26:27.680Z,21.45
2018-09-10T17:28:55.765Z,21.41
2018-09-10T17:31:23.801Z,21.44
2018-09-10T17:33:52.020Z,21.40
2018-09-10T17:36:20.113Z,21.36
2018-09-10T17:38:48.183Z,21.31
2018-09-10T17:41:16.398Z,21.28
2018-09-10T17:43:44.457Z,21.24
2018-09-10T17:46:12.556Z,21.22
2018-09-10T17:48:40.610Z,21.19
2018-09-10T17:51:08.831Z,21.17
2018-09-10T17:53:37.134Z,21.13
2018-09-10T17:56:05.357Z,21.07
2018-09-10T17:58:33.446Z,21.02
2018-09-10T18:01:01.740Z,20.97
2018-09-10T18:03:29.801Z,20.92
2018-09-10T18:05:57.871Z,20.89
2018-09-10T18:08:26.000Z,20.81
2018-09-10T18:10:54.113Z,20.74
2018-09-10T18:13:22.185Z,20.66
2018-09-10T18:15:50.205Z,20.63
2018-09-10T18:18:18.252Z,20.60
2018-09-10T18:20:46.294Z,20.53
2018-09-10T18:23:14.358Z,20.46
2018-09-10T18:25:42.389Z,20.43
2018-09-10T18:28:10.572Z,20.39
2018-09-10T18:30:38.997Z,20.30
2018-09-10T18:33:07.066Z,20.24
2018-09-10T18:35:35.144Z,20.19
2018-09-10T18:38:03.195Z,20.15
2018-09-10T18:40:31.257Z,20.13
2018-09-10T18:42:59.345Z,20.09
2018-09-10T18:45:27.423Z,20.05
2018-09-10T18:47:55.461Z,20.03
2018-09-10T18:50:23.517Z,20.01
2018-09-10T18:52:51.848Z,19.97
2018-09-10T18:55:19.892Z,19.93
2018-09-10T18:57:48.620Z,19.90
2018-09-10T19:00:16.965Z,19.90
2018-09-10T19:02:45.064Z,19.86
2018-09-10T19:05:13.273Z,19.86
2018-09-10T19:07:41.517Z,19.82
2018-09-10T19:10:09.950Z,19.78
2018-09-10T19:12:38.394Z,19.79
2018-09-10T19:15:06.636Z,19.74
2018-09-10T19:17:34.772Z,19.71
2018-09-10T19:20:03.044Z,19.70
2018-09-10T19:22:45.645Z,19.70
2018-09-10T19:25:13.696Z,19.66
2018-09-10T19:27:41.762Z,19.64
2018-09-10T19:30:10.157Z,19.59
2018-09-10T19:32:38.507Z,19.56
2018-09-10T19:35:06.545Z,19.54
2018-09-10T19:37:34.667Z,19.52
2018-09-10T19:40:02.718Z,19.48
2018-09-10T19:42:30.778Z,19.44
2018-09-10T19:44:58.840Z,19.41
2018-09-10T19:47:26.952Z,19.38
2018-09-10T19:49:55.026Z,19.36
2018-09-10T19:52:23.076Z,19.34
2018-09-10T19:54:51.157Z,19.32
2018-09-10T19:57:19.329Z,19.30
2018-09-10T19:59:47.407Z,19.29
2018-09-10T20:02:15.458Z,19.27
2018-09-10T20:04:43.521Z,19.26
2018-09-10T20:07:11.723Z,19.28
2018-09-10T20:09:39.849Z,19.28
2018-09-10T20:12:07.861Z,19.29
2018-09-10T20:14:36.010Z,19.31
2018-09-10T20:17:04.089Z,19.31
2018-09-10T20:19:32.161Z,19.25
2018-09-10T20:22:00.239Z,19.22
2018-09-10T20:24:28.293Z,19.19
2018-09-10T20:26:56.336Z,19.16
2018-09-10T20:29:24.381Z,19.10
2018-09-10T20:31:52.439Z,19.08
2018-09-10T20:34:20.586Z,19.05
2018-09-10T20:36:48.631Z,19.04
2018-09-10T20:39:16.687Z,19.02
2018-09-10T20:41:44.717Z,18.99
2018-09-10T20:44:12.784Z,18.98
2018-09-10T20:46:40.845Z,18.99
2018-09-10T20:49:08.896Z,18.97
2018-09-10T20:51:37.185Z,18.97
2018-09-10T20:54:05.267Z,18.93
2018-09-10T20:56:33.326Z,18.89
2018-09-10T20:59:02.001Z,18.87
2018-09-10T21:01:30.273Z,18.84
2018-09-10T21:03:58.312Z,18.83
2018-09-10T21:06:26.400Z,18.84
2018-09-10T21:08:54.499Z,18.84
2018-09-10T21:11:22.712Z,18.86
2018-09-10T21:13:51.095Z,18.89
2018-09-10T21:16:19.144Z,18.88
2018-09-10T21:18:47.372Z,18.91
2018-09-10T21:21:15.421Z,18.92
2018-09-10T21:23:43.660Z,18.94
2018-09-10T21:26:11.907Z,18.95
2018-09-10T21:28:39.936Z,19.00
2018-09-10T21:31:07.939Z,18.98
2018-09-10T21:33:36.219Z,19.03
2018-09-10T21:36:05.216Z,19.02
2018-09-10T21:38:33.227Z,19.02
2018-09-10T21:41:01.252Z,19.02
2018-09-10T21:43:29.410Z,18.98
2018-09-10T21:45:57.428Z,18.95
2018-09-10T21:48:25.595Z,18.93
2018-09-10T21:50:53.656Z,18.90
2018-09-10T21:53:21.943Z,18.85
2018-09-10T21:55:50.001Z,18.81
2018-09-10T21:58:18.032Z,18.80
2018-09-10T22:00:51.547Z,18.76
2018-09-10T22:03:19.928Z,18.71
2018-09-10T22:05:47.963Z,18.68
2018-09-10T22:08:16.274Z,18.64
2018-09-10T22:10:44.385Z,18.65
2018-09-10T22:13:12.700Z,18.60
2018-09-10T22:15:41.295Z,18.57
2018-09-10T22:18:09.328Z,18.54
2018-09-10T22:20:37.424Z,18.48
2018-09-10T22:23:05.645Z,18.46
2018-09-10T22:25:33.736Z,18.41
2018-09-10T22:28:01.780Z,18.33
2018-09-10T22:30:29.849Z,18.32
2018-09-10T22:32:57.892Z,18.27
2018-09-10T22:35:25.907Z,18.20
2018-09-10T22:37:53.963Z,18.19
2018-09-10T22:40:21.992Z,18.14
2018-09-10T22:42:50.051Z,18.13
2018-09-10T22:45:18.620Z,18.15
2018-09-10T22:47:46.742Z,18.16
2018-09-10T22:50:15.316Z,18.11
2018-09-10T22:52:43.338Z,18.08
2018-09-10T22:55:11.477Z,18.08
2018-09-10T22:57:39.544Z,18.07
2018-09-10T23:00:07.937Z,18.05
2018-09-10T23:02:36.094Z,18.00
2018-09-10T23:05:04.144Z,17.99
2018-09-10T23:07:32.164Z,17.98
2018-09-10T23:10:00.224Z,17.99
2018-09-10T23:12:28.244Z,18.00
2018-09-10T23:14:56.294Z,17.92
2018-09-10T23:17:24.316Z,17.92
2018-09-10T23:19:52.788Z,17.93
2018-09-10T23:22:20.877Z,17.90
2018-09-10T23:24:48.897Z,17.86
2018-09-10T23:27:16.918Z,17.83
2018-09-10T23:29:44.945Z,17.75
2018-09-10T23:32:12.960Z,17.73
2018-09-10T23:34:41.111Z,17.75
2018-09-10T23:37:09.160Z,17.72
2018-09-10T23:39:37.380Z,17.72
2018-09-10T23:42:05.505Z,17.70
2018-09-10T23:44:33.736Z,17.72
2018-09-10T23:47:01.794Z,17.68
2018-09-10T23:49:29.976Z,17.70
2018-09-10T23:51:58.003Z,17.69
2018-09-10T23:54:26.096Z,17.68
2018-09-10T23:56:54.184Z,17.68
2018-09-10T23:59:22.604Z,17.68
